Dover, Delaware
Current Conditions -  °F | °C
As of 2:58 AM on Sunday 26 Oct 2014 (Local Time) from KDOV Reporting Station
Clear Clear  
Wind Chill: 56°   Ceiling: Unl
Heat Index: 56°   Visibility: 9mi
Dew Point: 47°   Wind: 10mph
Humidity: 73%   Direction: 220°SW
Pressure: 29.61"   Gusts: NA
Location:  39.16°N, 75.52°W
Report Text: KDOV 260658Z AUTO 22009KT 9SM R19/5500FT CLR 13/09 A2961 RMK AO2 SLP030 T01330086
Loading
Personal Weather Stations






























Interactive Weather Map New forecast layout! Learn more

10-Day Weather Forecast

Advertisements
Track Severe Weather on mobile